Time;durP1;ratioP1;P1;durP2;ratioP2;P2;SDS_P1;SDS_P2;PMS_P1;PMS_P2;Temp;Humidity;BMP_temperature;BMP_pressure;BME280_temperature;BME280_humidity;BME280_pressure;Samples;Min_cycle;Max_cycle;Signal;HPM_P1;HPM_P2
2024/03/14 00:02:20;;;;;;;12.95;6.10;;;;;;;;;;5093729;28;20512;-65
2024/03/14 00:04:46;;;;;;;11.70;6.10;;;;;;;;;;5094291;28;20032;-65
2024/03/14 00:07:14;;;;;;;10.80;5.97;;;;;;;;;;5093628;28;20459;-64
2024/03/14 00:09:40;;;;;;;10.88;5.93;;;;;;;;;;5092215;28;20426;-67
2024/03/14 00:12:05;;;;;;;12.45;6.00;;;;;;;;;;5093366;28;20039;-65
2024/03/14 00:14:31;;;;;;;10.10;6.35;;;;;;;;;;5093595;28;20072;-65
2024/03/14 00:16:56;;;;;;;11.88;6.18;;;;;;;;;;5093404;28;20024;-66
2024/03/14 00:19:22;;;;;;;11.82;6.32;;;;;;;;;;5112348;28;20470;-65
2024/03/14 00:21:48;;;;;;;14.20;6.60;;;;;;;;;;5093509;28;20032;-66
2024/03/14 00:24:14;;;;;;;12.90;6.20;;;;;;;;;;5093088;28;20434;-66
2024/03/14 00:26:39;;;;;;;11.93;6.05;;;;;;;;;;5092843;28;20036;-66
2024/03/14 00:29:05;;;;;;;11.80;6.50;;;;;;;;;;5092932;28;20069;-66
2024/03/14 00:31:32;;;;;;;11.82;6.32;;;;;;;;;;5092277;28;20458;-65
2024/03/14 00:33:57;;;;;;;13.13;6.60;;;;;;;;;;5110653;28;20114;-65
2024/03/14 00:36:23;;;;;;;15.50;7.10;;;;;;;;;;5113215;28;20484;-65
2024/03/14 00:38:49;;;;;;;12.05;6.50;;;;;;;;;;5113697;28;20028;-63
2024/03/14 00:41:14;;;;;;;11.50;6.38;;;;;;;;;;5112359;28;20027;-69
2024/03/14 00:43:40;;;;;;;11.20;6.68;;;;;;;;;;5113041;28;20354;-66
2024/03/14 00:46:05;;;;;;;14.00;6.82;;;;;;;;;;5113431;28;20035;-66
2024/03/14 00:48:32;;;;;;;12.95;6.70;;;;;;;;;;5111309;28;20349;-66
2024/03/14 00:50:58;;;;;;;13.63;7.28;;;;;;;;;;5113093;27;20028;-66
2024/03/14 00:53:25;;;;;;;15.57;7.70;;;;;;;;;;5113179;28;20462;-65
2024/03/14 00:55:51;;;;;;;15.10;7.50;;;;;;;;;;5093930;28;20446;-66
2024/03/14 00:58:16;;;;;;;13.43;6.75;;;;;;;;;;5092781;28;20110;-67
2024/03/14 01:00:41;;;;;;;17.05;7.35;;;;;;;;;;5092620;28;20511;-67
2024/03/14 01:03:08;;;;;;;14.20;7.28;;;;;;;;;;5091844;28;20020;-64
2024/03/14 01:05:34;;;;;;;14.55;7.15;;;;;;;;;;5092531;28;20044;-66
2024/03/14 01:08:00;;;;;;;15.40;7.38;;;;;;;;;;5092860;28;20031;-65
2024/03/14 01:10:25;;;;;;;18.63;7.93;;;;;;;;;;5092803;28;20099;-65
2024/03/14 01:12:50;;;;;;;13.00;8.13;;;;;;;;;;5091982;28;20028;-65
2024/03/14 01:15:17;;;;;;;16.73;7.88;;;;;;;;;;5092262;28;20427;-67
2024/03/14 01:17:43;;;;;;;15.32;7.60;;;;;;;;;;5109800;28;20459;-66
2024/03/14 01:20:16;;;;;;;16.30;8.07;;;;;;;;;;5112932;28;20054;-64
2024/03/14 01:22:42;;;;;;;15.25;7.82;;;;;;;;;;5112972;28;20463;-66
2024/03/14 01:25:07;;;;;;;14.10;7.60;;;;;;;;;;5112101;28;20060;-64
2024/03/14 01:27:33;;;;;;;14.73;8.23;;;;;;;;;;5092505;28;20089;-65
2024/03/14 01:29:59;;;;;;;15.65;7.72;;;;;;;;;;5092450;28;20232;-65
2024/03/14 01:32:24;;;;;;;14.73;8.30;;;;;;;;;;5092234;28;20431;-65
2024/03/14 01:34:50;;;;;;;15.80;7.95;;;;;;;;;;5092231;28;20043;-66
2024/03/14 01:37:15;;;;;;;16.58;8.10;;;;;;;;;;5092183;28;20035;-66
2024/03/14 01:39:41;;;;;;;15.82;8.02;;;;;;;;;;5092625;28;20051;-66
2024/03/14 01:42:06;;;;;;;14.88;8.27;;;;;;;;;;5092176;28;20024;-66
2024/03/14 01:44:38;;;;;;;16.10;8.35;;;;;;;;;;5090679;28;20024;-66
2024/03/14 01:47:05;;;;;;;21.35;8.82;;;;;;;;;;5109011;28;20027;-67
2024/03/14 01:49:32;;;;;;;16.92;8.82;;;;;;;;;;5111850;28;20019;-67
2024/03/14 01:51:58;;;;;;;16.33;8.80;;;;;;;;;;5112855;28;20139;-69
2024/03/14 01:54:23;;;;;;;16.80;9.02;;;;;;;;;;5112561;28;20110;-66
2024/03/14 01:56:57;;;;;;;16.52;9.05;;;;;;;;;;5112646;28;20070;-65
2024/03/14 01:59:23;;;;;;;18.80;9.40;;;;;;;;;;5106995;28;20023;-66
2024/03/14 02:01:49;;;;;;;20.05;9.32;;;;;;;;;;5111466;28;20024;-67
2024/03/14 02:04:17;;;;;;;17.15;8.68;;;;;;;;;;5111113;28;20414;-67
2024/03/14 02:06:50;;;;;;;18.80;9.75;;;;;;;;;;5112018;28;20027;-66
2024/03/14 02:09:17;;;;;;;17.02;9.70;;;;;;;;;;5093448;28;20051;-66
2024/03/14 02:11:42;;;;;;;21.73;9.90;;;;;;;;;;5091501;28;20328;-65
2024/03/14 02:14:08;;;;;;;19.42;10.32;;;;;;;;;;5091916;28;20123;-65
2024/03/14 02:16:33;;;;;;;18.60;9.85;;;;;;;;;;5091434;28;20024;-65
2024/03/14 02:18:59;;;;;;;20.45;10.10;;;;;;;;;;5091538;28;20024;-66
2024/03/14 02:21:24;;;;;;;21.20;10.10;;;;;;;;;;5092081;28;20075;-65
2024/03/14 02:23:49;;;;;;;20.02;9.85;;;;;;;;;;5094138;28;20025;-65
2024/03/14 02:26:15;;;;;;;18.98;10.30;;;;;;;;;;5094322;28;20051;-67
2024/03/14 02:28:40;;;;;;;20.80;10.73;;;;;;;;;;5095508;28;20020;-66
2024/03/14 02:31:06;;;;;;;21.48;11.15;;;;;;;;;;5112598;28;20019;-65
2024/03/14 02:33:32;;;;;;;21.90;10.68;;;;;;;;;;5114706;28;20038;-63
2024/03/14 02:35:57;;;;;;;23.08;11.77;;;;;;;;;;5115946;28;20110;-63
2024/03/14 02:38:23;;;;;;;22.42;11.38;;;;;;;;;;5115133;28;20198;-66
2024/03/14 02:40:48;;;;;;;20.38;10.65;;;;;;;;;;5098006;28;20027;-66
2024/03/14 02:43:13;;;;;;;22.42;11.90;;;;;;;;;;5115670;28;20034;-64
2024/03/14 02:45:39;;;;;;;21.85;11.05;;;;;;;;;;5115269;28;20035;-66
2024/03/14 02:48:04;;;;;;;23.58;11.18;;;;;;;;;;5115762;28;20077;-65
2024/03/14 02:50:30;;;;;;;21.00;10.80;;;;;;;;;;5115593;27;20028;-66
2024/03/14 02:52:57;;;;;;;26.13;10.98;;;;;;;;;;5101796;28;20044;-66
2024/03/14 02:55:22;;;;;;;20.75;11.32;;;;;;;;;;5095240;28;20396;-67
2024/03/14 02:57:48;;;;;;;21.23;11.32;;;;;;;;;;5095617;28;20028;-65
2024/03/14 03:00:16;;;;;;;20.63;10.80;;;;;;;;;;5095502;28;20016;-64
2024/03/14 03:02:44;;;;;;;21.73;11.48;;;;;;;;;;5095338;28;20050;-65
2024/03/14 03:05:10;;;;;;;23.13;11.73;;;;;;;;;;5095281;28;20051;-65
2024/03/14 03:07:35;;;;;;;24.08;11.60;;;;;;;;;;5096501;28;20173;-67
2024/03/14 03:10:01;;;;;;;23.75;11.43;;;;;;;;;;5094698;28;20020;-66
2024/03/14 03:12:26;;;;;;;22.23;11.85;;;;;;;;;;5094860;28;20047;-65
2024/03/14 03:14:53;;;;;;;22.20;11.38;;;;;;;;;;5108449;28;20343;-67
2024/03/14 03:17:18;;;;;;;22.10;10.70;;;;;;;;;;5115273;28;20069;-67
2024/03/14 03:19:45;;;;;;;22.35;11.45;;;;;;;;;;5096936;28;20434;-66
2024/03/14 03:22:11;;;;;;;22.48;12.18;;;;;;;;;;5114911;28;20024;-66
2024/03/14 03:24:36;;;;;;;24.90;12.60;;;;;;;;;;5114264;28;20103;-66
2024/03/14 03:27:13;;;;;;;24.02;12.57;;;;;;;;;;5114991;28;20020;-66
2024/03/14 03:29:39;;;;;;;25.20;12.68;;;;;;;;;;5112841;28;20035;-66
2024/03/14 03:32:04;;;;;;;24.65;11.82;;;;;;;;;;5113632;28;20015;-65
2024/03/14 03:34:29;;;;;;;26.45;12.48;;;;;;;;;;5112819;28;20024;-66
2024/03/14 03:36:55;;;;;;;25.42;12.32;;;;;;;;;;5114808;28;20023;-66
2024/03/14 03:39:20;;;;;;;22.65;12.23;;;;;;;;;;5113582;28;20031;-66
2024/03/14 03:41:46;;;;;;;23.27;12.68;;;;;;;;;;5112786;27;20020;-67
2024/03/14 03:44:13;;;;;;;22.80;11.93;;;;;;;;;;5114787;27;20019;-67
2024/03/14 03:46:44;;;;;;;21.70;13.23;;;;;;;;;;5114523;28;20432;-66
2024/03/14 03:49:10;;;;;;;25.50;12.80;;;;;;;;;;5114210;28;20053;-66
2024/03/14 03:51:35;;;;;;;24.88;13.25;;;;;;;;;;5110830;28;20028;-66
2024/03/14 03:54:03;;;;;;;21.55;12.02;;;;;;;;;;5113746;28;20185;-64
2024/03/14 03:56:29;;;;;;;25.67;12.90;;;;;;;;;;5114948;28;20024;-65
2024/03/14 03:58:55;;;;;;;25.30;13.35;;;;;;;;;;5112150;28;20339;-66
2024/03/14 04:01:22;;;;;;;25.02;13.02;;;;;;;;;;5114000;28;20235;-68
2024/03/14 04:03:48;;;;;;;27.77;13.63;;;;;;;;;;5096443;28;20396;-66
2024/03/14 04:06:15;;;;;;;25.88;13.13;;;;;;;;;;5092738;28;20040;-66
2024/03/14 04:08:40;;;;;;;27.73;14.05;;;;;;;;;;5093130;28;20016;-66
2024/03/14 04:11:07;;;;;;;25.38;13.77;;;;;;;;;;5092324;28;20031;-67
2024/03/14 04:13:33;;;;;;;24.40;12.88;;;;;;;;;;5093202;28;20102;-67
2024/03/14 04:16:00;;;;;;;24.60;13.35;;;;;;;;;;5093681;28;20115;-68
2024/03/14 04:18:29;;;;;;;29.55;13.60;;;;;;;;;;5108567;28;20039;-65
2024/03/14 04:20:54;;;;;;;25.45;13.35;;;;;;;;;;5113834;28;20408;-66
2024/03/14 04:23:20;;;;;;;25.48;13.18;;;;;;;;;;5113769;27;20107;-65
2024/03/14 04:25:46;;;;;;;28.50;14.10;;;;;;;;;;5113428;28;20043;-66
2024/03/14 04:28:13;;;;;;;27.73;13.57;;;;;;;;;;5110610;28;20027;-67
2024/03/14 04:30:38;;;;;;;26.55;14.85;;;;;;;;;;5113564;28;20031;-65
2024/03/14 04:33:04;;;;;;;26.00;15.35;;;;;;;;;;5113435;28;20019;-66
2024/03/14 04:35:31;;;;;;;26.63;17.15;;;;;;;;;;5113534;28;20028;-64
2024/03/14 04:37:57;;;;;;;26.88;18.50;;;;;;;;;;5113556;28;20023;-65
2024/03/14 04:40:22;;;;;;;30.08;20.20;;;;;;;;;;5113332;28;20341;-64
2024/03/14 04:42:54;;;;;;;27.00;21.25;;;;;;;;;;5098483;28;20019;-66
2024/03/14 04:45:21;;;;;;;25.80;17.50;;;;;;;;;;5092947;28;20071;-67
2024/03/14 04:47:47;;;;;;;29.70;18.02;;;;;;;;;;5092331;28;20020;-65
2024/03/14 04:50:18;;;;;;;26.27;16.67;;;;;;;;;;5092389;28;20295;-66
2024/03/14 04:52:44;;;;;;;21.85;14.80;;;;;;;;;;5093907;28;20116;-67
2024/03/14 04:55:10;;;;;;;23.23;14.00;;;;;;;;;;5092699;28;20031;-66
2024/03/14 04:57:43;;;;;;;24.50;14.02;;;;;;;;;;5091364;28;20114;-65
2024/03/14 05:00:20;;;;;;;23.52;15.00;;;;;;;;;;5092032;28;20035;-65
2024/03/14 05:02:48;;;;;;;21.40;14.30;;;;;;;;;;5093056;28;20016;-66
2024/03/14 05:05:13;;;;;;;22.15;15.13;;;;;;;;;;5091317;28;20032;-65
2024/03/14 05:07:39;;;;;;;24.02;13.77;;;;;;;;;;5097777;28;20030;-66
2024/03/14 05:10:08;;;;;;;21.58;13.40;;;;;;;;;;5113584;28;20482;-67
2024/03/14 05:12:34;;;;;;;22.38;14.52;;;;;;;;;;5113465;28;20047;-66
2024/03/14 05:14:59;;;;;;;19.88;13.02;;;;;;;;;;5111557;28;20069;-68
2024/03/14 05:17:25;;;;;;;24.52;13.75;;;;;;;;;;5112831;28;20032;-66
2024/03/14 05:19:50;;;;;;;23.90;13.75;;;;;;;;;;5111266;28;20023;-67
2024/03/14 05:22:19;;;;;;;21.27;13.63;;;;;;;;;;5112950;28;20023;-66
2024/03/14 05:24:44;;;;;;;21.88;14.63;;;;;;;;;;5112398;28;20495;-68
2024/03/14 05:27:10;;;;;;;20.10;12.98;;;;;;;;;;5112403;28;20169;-65
2024/03/14 05:29:36;;;;;;;21.52;12.98;;;;;;;;;;5108713;28;20036;-65
2024/03/14 05:32:02;;;;;;;19.77;13.63;;;;;;;;;;5091810;28;20020;-65
2024/03/14 05:34:27;;;;;;;23.27;14.40;;;;;;;;;;5092171;28;20365;-62
2024/03/14 05:36:52;;;;;;;22.30;14.07;;;;;;;;;;5092179;28;20035;-62
2024/03/14 05:39:21;;;;;;;20.85;13.38;;;;;;;;;;5092450;28;20020;-61
2024/03/14 05:41:47;;;;;;;24.05;13.85;;;;;;;;;;5110365;28;20035;-63
2024/03/14 05:44:12;;;;;;;20.80;13.55;;;;;;;;;;5112488;28;20015;-63
2024/03/14 05:46:37;;;;;;;21.67;13.68;;;;;;;;;;5111297;28;20419;-62
2024/03/14 05:49:03;;;;;;;24.30;13.77;;;;;;;;;;5111449;28;20020;-60
2024/03/14 05:51:29;;;;;;;20.88;13.68;;;;;;;;;;5094413;28;20028;-62
2024/03/14 05:53:55;;;;;;;22.85;13.75;;;;;;;;;;5092153;28;20071;-60
2024/03/14 05:56:20;;;;;;;20.30;13.63;;;;;;;;;;5091902;28;20465;-59
2024/03/14 05:58:45;;;;;;;21.42;14.27;;;;;;;;;;5094793;28;20028;-60
2024/03/14 06:01:11;;;;;;;22.65;13.98;;;;;;;;;;5111196;28;20357;-58
2024/03/14 06:03:42;;;;;;;18.58;13.65;;;;;;;;;;5115773;28;20466;-70
2024/03/14 06:06:08;;;;;;;25.90;14.55;;;;;;;;;;5116482;28;20094;-62
2024/03/14 06:08:33;;;;;;;19.80;13.98;;;;;;;;;;5115829;28;20494;-59
2024/03/14 06:10:58;;;;;;;19.52;14.13;;;;;;;;;;5102801;28;20388;-60
2024/03/14 06:13:24;;;;;;;22.67;14.63;;;;;;;;;;5095895;28;20028;-65
2024/03/14 06:15:50;;;;;;;21.65;14.23;;;;;;;;;;5095612;28;20032;-64
2024/03/14 06:18:16;;;;;;;22.77;13.68;;;;;;;;;;5115462;28;20028;-64
2024/03/14 06:20:42;;;;;;;24.50;13.02;;;;;;;;;;5098631;28;20104;-64
2024/03/14 06:23:08;;;;;;;20.95;14.23;;;;;;;;;;5095909;28;20042;-64
2024/03/14 06:25:34;;;;;;;23.10;13.65;;;;;;;;;;5095389;28;20031;-65
2024/03/14 06:27:59;;;;;;;22.13;14.18;;;;;;;;;;5095294;28;20024;-63
2024/03/14 06:30:24;;;;;;;21.05;13.93;;;;;;;;;;5095368;28;20107;-65
2024/03/14 06:32:50;;;;;;;18.45;14.15;;;;;;;;;;5095582;28;20055;-65
2024/03/14 06:35:16;;;;;;;20.13;14.07;;;;;;;;;;5095317;28;20081;-64
2024/03/14 06:37:41;;;;;;;17.50;13.55;;;;;;;;;;5095249;28;20020;-62
2024/03/14 06:40:08;;;;;;;20.70;13.68;;;;;;;;;;5095639;28;20016;-63
2024/03/14 06:42:33;;;;;;;18.80;13.63;;;;;;;;;;5094778;28;20097;-64
2024/03/14 06:45:02;;;;;;;18.65;13.05;;;;;;;;;;5094547;28;20769;-66
2024/03/14 06:47:30;;;;;;;18.75;13.55;;;;;;;;;;5095356;28;20726;-65
2024/03/14 06:49:58;;;;;;;22.40;13.93;;;;;;;;;;5096155;28;20017;-66
2024/03/14 06:52:24;;;;;;;20.17;13.88;;;;;;;;;;5094784;28;20052;-64
2024/03/14 06:54:50;;;;;;;18.55;13.40;;;;;;;;;;5095052;28;20088;-63
2024/03/14 06:57:15;;;;;;;18.23;13.15;;;;;;;;;;5094275;28;20351;-65
2024/03/14 06:59:41;;;;;;;19.30;13.45;;;;;;;;;;5115014;28;20027;-64
2024/03/14 07:02:07;;;;;;;16.17;12.57;;;;;;;;;;5115403;28;20023;-63
2024/03/14 07:04:34;;;;;;;21.60;12.57;;;;;;;;;;5115012;28;20011;-64
2024/03/14 07:06:59;;;;;;;19.75;13.43;;;;;;;;;;5115356;28;20027;-64
2024/03/14 07:09:27;;;;;;;18.52;13.68;;;;;;;;;;5113110;28;20023;-64
2024/03/14 07:11:53;;;;;;;18.98;13.50;;;;;;;;;;5114900;28;20032;-65
2024/03/14 07:14:19;;;;;;;15.70;12.98;;;;;;;;;;5113301;28;20076;-65
2024/03/14 07:16:45;;;;;;;15.90;13.18;;;;;;;;;;5115335;28;20019;-63
2024/03/14 07:19:11;;;;;;;15.40;12.43;;;;;;;;;;5114949;28;20030;-64
2024/03/14 07:21:38;;;;;;;18.85;13.43;;;;;;;;;;5112344;28;20016;-64
2024/03/14 07:24:04;;;;;;;18.02;13.10;;;;;;;;;;5114835;28;20032;-63
2024/03/14 07:26:35;;;;;;;20.20;12.32;;;;;;;;;;5114835;28;20213;-67
2024/03/14 07:29:03;;;;;;;17.85;12.65;;;;;;;;;;5114366;27;20095;-65
2024/03/14 07:31:28;;;;;;;18.75;14.30;;;;;;;;;;5114384;28;20019;-64
2024/03/14 07:33:54;;;;;;;17.92;13.27;;;;;;;;;;5113230;28;20319;-65
2024/03/14 07:36:20;;;;;;;15.73;11.57;;;;;;;;;;5114947;28;20026;-64
2024/03/14 07:38:47;;;;;;;21.10;12.73;;;;;;;;;;5106259;28;20031;-64
2024/03/14 07:41:22;;;;;;;14.23;12.23;;;;;;;;;;5093220;28;20084;-62
2024/03/14 07:43:48;;;;;;;17.17;13.00;;;;;;;;;;5094321;28;20020;-64
2024/03/14 07:46:13;;;;;;;18.10;12.85;;;;;;;;;;5094656;28;20050;-61
2024/03/14 07:48:41;;;;;;;19.02;12.90;;;;;;;;;;5095154;28;20024;-62
2024/03/14 07:51:07;;;;;;;16.05;11.80;;;;;;;;;;5093634;28;20028;-64
2024/03/14 07:53:33;;;;;;;15.48;11.95;;;;;;;;;;5093939;28;20129;-63
2024/03/14 07:55:59;;;;;;;17.95;12.02;;;;;;;;;;5093989;28;20444;-64
2024/03/14 07:58:24;;;;;;;17.20;12.18;;;;;;;;;;5092522;28;20020;-63
2024/03/14 08:00:52;;;;;;;21.65;13.70;;;;;;;;;;5093360;28;20024;-64
2024/03/14 08:03:18;;;;;;;22.20;12.98;;;;;;;;;;5094487;28;20030;-64
2024/03/14 08:05:50;;;;;;;20.77;13.43;;;;;;;;;;5102918;28;20027;-64
2024/03/14 08:08:16;;;;;;;24.20;12.52;;;;;;;;;;5113822;27;20023;-62
2024/03/14 08:10:45;;;;;;;18.90;12.60;;;;;;;;;;5112184;28;20093;-64
2024/03/14 08:13:17;;;;;;;22.60;13.20;;;;;;;;;;5114218;28;20035;-63
2024/03/14 08:15:52;;;;;;;22.67;13.02;;;;;;;;;;5113974;28;20102;-64
2024/03/14 08:18:20;;;;;;;27.40;13.88;;;;;;;;;;5111935;28;20016;-64
2024/03/14 08:20:47;;;;;;;23.85;14.13;;;;;;;;;;5113598;28;20047;-64
2024/03/14 08:23:13;;;;;;;29.40;13.68;;;;;;;;;;5113688;28;20038;-65
2024/03/14 08:25:40;;;;;;;19.90;13.75;;;;;;;;;;5113441;28;20103;-65
2024/03/14 08:28:06;;;;;;;22.60;13.95;;;;;;;;;;5113977;27;20016;-64
2024/03/14 08:30:32;;;;;;;27.10;13.65;;;;;;;;;;5113281;28;20136;-65
2024/03/14 08:32:57;;;;;;;20.63;13.23;;;;;;;;;;5110966;28;20402;-66
2024/03/14 08:35:23;;;;;;;17.92;11.93;;;;;;;;;;5092905;28;20103;-64
2024/03/14 08:37:49;;;;;;;19.52;12.10;;;;;;;;;;5091928;28;20024;-66
2024/03/14 08:40:14;;;;;;;20.35;12.43;;;;;;;;;;5080083;28;20055;-66
2024/03/14 08:42:39;;;;;;;21.85;12.45;;;;;;;;;;5077925;28;20028;-64
2024/03/14 08:45:05;;;;;;;24.75;12.20;;;;;;;;;;5079459;28;20025;-64
2024/03/14 08:47:31;;;;;;;18.60;11.95;;;;;;;;;;5055667;28;20044;-62
2024/03/14 08:49:57;;;;;;;20.60;12.13;;;;;;;;;;5083174;28;20024;-63
2024/03/14 08:52:26;;;;;;;22.48;12.57;;;;;;;;;;5091025;28;20377;-63
2024/03/14 08:54:53;;;;;;;22.88;12.52;;;;;;;;;;5087677;28;20112;-63
2024/03/14 08:57:18;;;;;;;23.60;13.25;;;;;;;;;;5092294;28;20426;-63
2024/03/14 08:59:46;;;;;;;21.77;11.55;;;;;;;;;;5083177;28;20025;-65
2024/03/14 09:02:12;;;;;;;24.50;11.30;;;;;;;;;;5075406;28;20028;-65
2024/03/14 09:04:41;;;;;;;20.48;11.05;;;;;;;;;;5075500;28;20035;-62
2024/03/14 09:07:06;;;;;;;18.55;10.10;;;;;;;;;;5070240;28;20115;-63
2024/03/14 09:09:35;;;;;;;15.07;10.38;;;;;;;;;;5073422;28;20873;-66
2024/03/14 09:12:11;;;;;;;20.13;10.30;;;;;;;;;;5092826;28;20016;-63
2024/03/14 09:14:39;;;;;;;17.58;10.70;;;;;;;;;;5092350;28;20047;-61
2024/03/14 09:17:04;;;;;;;17.92;11.05;;;;;;;;;;5091717;28;20070;-65
2024/03/14 09:19:32;;;;;;;17.88;10.90;;;;;;;;;;5092390;28;20076;-64
2024/03/14 09:21:58;;;;;;;21.85;10.27;;;;;;;;;;5092801;28;20019;-64
2024/03/14 09:24:23;;;;;;;16.20;10.15;;;;;;;;;;5103676;28;20103;-63
2024/03/14 09:26:49;;;;;;;19.15;10.18;;;;;;;;;;5091795;28;20036;-62
2024/03/14 09:29:15;;;;;;;19.02;10.35;;;;;;;;;;5092644;28;20036;-63
2024/03/14 09:31:44;;;;;;;18.10;10.40;;;;;;;;;;5091362;28;20167;-63
2024/03/14 09:34:11;;;;;;;18.60;10.63;;;;;;;;;;5091481;28;20360;-66
2024/03/14 09:36:36;;;;;;;16.10;9.10;;;;;;;;;;5091628;28;20446;-65
2024/03/14 09:39:03;;;;;;;19.00;9.77;;;;;;;;;;5105544;28;20026;-63
2024/03/14 09:41:30;;;;;;;19.52;9.98;;;;;;;;;;5113123;28;20050;-64
2024/03/14 09:43:57;;;;;;;17.38;9.68;;;;;;;;;;5112020;28;20026;-63
2024/03/14 09:46:25;;;;;;;17.60;8.65;;;;;;;;;;5111456;28;20046;-63
2024/03/14 09:48:51;;;;;;;16.63;9.90;;;;;;;;;;5110669;28;20031;-62
2024/03/14 09:51:17;;;;;;;17.90;9.52;;;;;;;;;;5110052;28;20020;-63
2024/03/14 09:53:45;;;;;;;18.15;9.52;;;;;;;;;;5091362;28;20040;-63
2024/03/14 09:56:10;;;;;;;17.58;10.23;;;;;;;;;;5091643;28;20032;-64
2024/03/14 09:58:37;;;;;;;15.50;9.40;;;;;;;;;;5101298;28;20096;-65
2024/03/14 10:01:04;;;;;;;18.73;9.43;;;;;;;;;;5104410;28;20280;-62
2024/03/14 10:03:31;;;;;;;18.65;8.80;;;;;;;;;;5102757;28;20024;-61
2024/03/14 10:05:56;;;;;;;18.65;9.88;;;;;;;;;;5111925;28;20404;-65
2024/03/14 10:08:22;;;;;;;13.60;9.25;;;;;;;;;;5096597;28;20024;-61
2024/03/14 10:10:47;;;;;;;13.00;8.60;;;;;;;;;;5091735;28;20032;-60
2024/03/14 10:13:24;;;;;;;15.90;9.38;;;;;;;;;;5090720;28;20012;-62
2024/03/14 10:15:50;;;;;;;14.93;9.82;;;;;;;;;;5092198;28;20451;-62
2024/03/14 10:18:18;;;;;;;16.50;9.32;;;;;;;;;;5091849;28;20017;-60
2024/03/14 10:20:43;;;;;;;21.65;9.68;;;;;;;;;;5091186;28;20108;-60
2024/03/14 10:23:08;;;;;;;15.65;9.90;;;;;;;;;;5092334;28;20103;-58
2024/03/14 10:25:38;;;;;;;18.98;9.50;;;;;;;;;;5091429;28;20028;-60
2024/03/14 10:28:06;;;;;;;17.58;10.20;;;;;;;;;;5091560;28;20036;-60
2024/03/14 10:30:33;;;;;;;16.77;9.32;;;;;;;;;;5091543;28;20341;-61
2024/03/14 10:32:59;;;;;;;18.85;9.35;;;;;;;;;;5091537;28;20031;-61
2024/03/14 10:35:25;;;;;;;20.05;9.55;;;;;;;;;;5091100;28;20020;-58
2024/03/14 10:37:57;;;;;;;18.73;9.88;;;;;;;;;;5091962;28;20031;-58
2024/03/14 10:40:27;;;;;;;16.30;9.45;;;;;;;;;;5091246;28;20032;-62
2024/03/14 10:42:54;;;;;;;15.60;8.65;;;;;;;;;;5091512;28;20019;-56
2024/03/14 10:45:20;;;;;;;16.52;9.27;;;;;;;;;;5094703;28;20036;-61
2024/03/14 10:47:46;;;;;;;16.60;9.43;;;;;;;;;;5095494;28;20024;-61
2024/03/14 10:50:16;;;;;;;16.15;9.20;;;;;;;;;;5094896;28;20542;-59
2024/03/14 10:52:49;;;;;;;18.33;9.25;;;;;;;;;;5094574;28;20056;-63
2024/03/14 10:55:18;;;;;;;13.77;8.27;;;;;;;;;;5095048;28;20028;-58
2024/03/14 10:57:44;;;;;;;14.13;8.68;;;;;;;;;;5095205;28;20023;-58
2024/03/14 11:00:14;;;;;;;15.90;9.20;;;;;;;;;;5094733;28;20016;-58
2024/03/14 11:02:42;;;;;;;15.63;8.75;;;;;;;;;;5095189;28;20036;-62
2024/03/14 11:05:10;;;;;;;13.60;8.73;;;;;;;;;;5094838;28;20032;-62
2024/03/14 11:07:35;;;;;;;14.52;8.50;;;;;;;;;;5095277;28;20035;-60
2024/03/14 11:10:06;;;;;;;16.40;8.85;;;;;;;;;;5094750;28;20134;-58
2024/03/14 11:12:34;;;;;;;16.23;8.20;;;;;;;;;;5113913;28;20027;-60
2024/03/14 11:15:03;;;;;;;14.32;8.38;;;;;;;;;;5115223;28;20027;-58
2024/03/14 11:17:31;;;;;;;16.08;9.15;;;;;;;;;;5115479;28;20111;-55
2024/03/14 11:20:01;;;;;;;16.80;8.90;;;;;;;;;;5114917;27;20422;-55
2024/03/14 11:22:27;;;;;;;17.50;9.80;;;;;;;;;;5115027;28;20089;-57
2024/03/14 11:24:54;;;;;;;15.18;9.45;;;;;;;;;;5114150;28;20026;-61
2024/03/14 11:27:21;;;;;;;21.50;10.40;;;;;;;;;;5101297;28;20349;-62
2024/03/14 11:29:47;;;;;;;13.82;8.07;;;;;;;;;;5114637;28;20015;-63
2024/03/14 11:32:18;;;;;;;13.88;8.60;;;;;;;;;;5114043;28;20482;-63
2024/03/14 11:34:43;;;;;;;18.65;9.55;;;;;;;;;;5109063;28;20028;-62
2024/03/14 11:37:08;;;;;;;14.35;8.85;;;;;;;;;;5094464;28;20035;-59
2024/03/14 11:39:37;;;;;;;19.10;9.52;;;;;;;;;;5093771;28;20039;-62
2024/03/14 11:42:11;;;;;;;17.20;9.05;;;;;;;;;;5093744;28;20442;-62
2024/03/14 11:44:39;;;;;;;17.30;8.45;;;;;;;;;;5094480;28;20051;-62
2024/03/14 11:47:05;;;;;;;14.73;8.52;;;;;;;;;;5094085;28;20134;-60
2024/03/14 11:49:31;;;;;;;16.42;8.93;;;;;;;;;;5094766;28;20023;-62
2024/03/14 11:51:58;;;;;;;19.55;9.27;;;;;;;;;;5093709;28;20374;-62
2024/03/14 11:54:24;;;;;;;14.55;8.75;;;;;;;;;;5094016;28;20152;-60
2024/03/14 11:56:50;;;;;;;13.65;8.05;;;;;;;;;;5092705;28;20462;-63
2024/03/14 11:59:16;;;;;;;18.30;8.60;;;;;;;;;;5101945;28;20019;-61
2024/03/14 12:01:41;;;;;;;16.98;8.77;;;;;;;;;;5113921;28;20054;-60
2024/03/14 12:04:13;;;;;;;15.40;8.25;;;;;;;;;;5114255;28;20361;-60
2024/03/14 12:06:40;;;;;;;13.45;8.65;;;;;;;;;;5113702;28;20308;-58
2024/03/14 12:09:06;;;;;;;13.15;8.13;;;;;;;;;;5113786;28;20110;-62
2024/03/14 12:11:33;;;;;;;16.65;8.63;;;;;;;;;;5113935;28;20489;-61
2024/03/14 12:13:58;;;;;;;16.80;9.00;;;;;;;;;;5094520;28;20446;-59
2024/03/14 12:16:25;;;;;;;15.70;8.48;;;;;;;;;;5093583;28;20024;-60
2024/03/14 12:18:53;;;;;;;16.15;8.43;;;;;;;;;;5093171;28;20035;-65
2024/03/14 12:21:19;;;;;;;14.43;7.88;;;;;;;;;;5110395;28;20358;-62
2024/03/14 12:23:52;;;;;;;13.18;7.45;;;;;;;;;;5100556;28;20030;-61
2024/03/14 12:26:18;;;;;;;13.38;7.90;;;;;;;;;;5088065;28;20043;-63
2024/03/14 12:28:43;;;;;;;19.77;7.55;;;;;;;;;;5072498;28;20059;-62
2024/03/14 12:31:12;;;;;;;13.32;7.55;;;;;;;;;;5073807;28;20024;-64
2024/03/14 12:33:41;;;;;;;14.10;8.30;;;;;;;;;;5080568;28;20031;-59
2024/03/14 12:36:08;;;;;;;18.75;8.85;;;;;;;;;;5085013;28;20020;-65
2024/03/14 12:38:35;;;;;;;14.02;7.45;;;;;;;;;;5090673;28;20435;-58
2024/03/14 12:41:01;;;;;;;15.13;7.60;;;;;;;;;;5089026;28;20031;-57
2024/03/14 12:43:27;;;;;;;13.27;7.20;;;;;;;;;;5093048;28;20016;-58
2024/03/14 12:45:53;;;;;;;14.45;6.80;;;;;;;;;;5093319;28;20438;-60
2024/03/14 12:48:19;;;;;;;14.20;8.40;;;;;;;;;;5092988;28;20039;-58
2024/03/14 12:50:45;;;;;;;15.55;8.10;;;;;;;;;;5093049;28;20020;-55
2024/03/14 12:53:15;;;;;;;14.02;7.97;;;;;;;;;;5093160;28;20055;-60
2024/03/14 12:55:43;;;;;;;12.73;7.13;;;;;;;;;;5092430;28;20454;-58
2024/03/14 12:58:20;;;;;;;14.30;7.50;;;;;;;;;;5093573;28;20459;-61
2024/03/14 13:00:51;;;;;;;12.13;6.97;;;;;;;;;;5093256;28;20051;-58
2024/03/14 13:03:23;;;;;;;13.23;6.90;;;;;;;;;;5093658;28;20024;-60
2024/03/14 13:05:49;;;;;;;12.23;6.30;;;;;;;;;;5092762;28;20134;-61
2024/03/14 13:08:15;;;;;;;11.27;6.63;;;;;;;;;;5086731;28;20035;-65
2024/03/14 13:10:41;;;;;;;13.27;6.13;;;;;;;;;;5086339;28;20032;-66
2024/03/14 13:13:11;;;;;;;12.30;6.43;;;;;;;;;;5076311;28;20029;-64
2024/03/14 13:15:39;;;;;;;13.50;6.25;;;;;;;;;;5091660;28;20031;-65
2024/03/14 13:18:12;;;;;;;13.93;6.47;;;;;;;;;;5093120;28;20024;-65
2024/03/14 13:20:39;;;;;;;13.10;7.18;;;;;;;;;;5092863;28;20026;-65
2024/03/14 13:23:04;;;;;;;15.02;7.22;;;;;;;;;;5091862;28;20020;-65
2024/03/14 13:25:30;;;;;;;13.80;6.72;;;;;;;;;;5092474;28;20044;-63
2024/03/14 13:27:56;;;;;;;15.98;7.20;;;;;;;;;;5091347;28;20465;-63
2024/03/14 13:30:21;;;;;;;10.88;6.20;;;;;;;;;;5092368;28;20024;-63
2024/03/14 13:32:47;;;;;;;13.15;6.38;;;;;;;;;;5092026;28;20028;-65
2024/03/14 13:35:13;;;;;;;12.95;6.85;;;;;;;;;;5090456;28;20078;-64
2024/03/14 13:37:44;;;;;;;12.95;6.03;;;;;;;;;;5090131;28;20028;-64
2024/03/14 13:40:12;;;;;;;13.27;6.85;;;;;;;;;;5074427;28;20443;-65
2024/03/14 13:42:41;;;;;;;13.60;6.60;;;;;;;;;;5071708;28;20020;-65
2024/03/14 13:45:07;;;;;;;12.63;6.30;;;;;;;;;;5071553;28;20029;-66
2024/03/14 13:47:32;;;;;;;10.93;6.85;;;;;;;;;;5076012;28;20438;-64
2024/03/14 13:49:58;;;;;;;11.48;5.95;;;;;;;;;;5101165;28;20019;-63
2024/03/14 13:52:24;;;;;;;11.18;5.90;;;;;;;;;;5095358;28;20098;-67
2024/03/14 13:54:50;;;;;;;10.60;6.05;;;;;;;;;;5090597;28;20036;-69
2024/03/14 13:57:16;;;;;;;13.98;6.47;;;;;;;;;;5091612;28;20012;-68
2024/03/14 13:59:46;;;;;;;13.35;6.03;;;;;;;;;;5103468;28;20024;-65
2024/03/14 14:02:13;;;;;;;12.27;5.75;;;;;;;;;;5098261;28;20422;-58
2024/03/14 14:04:39;;;;;;;12.05;6.45;;;;;;;;;;5095644;28;20099;-64
2024/03/14 14:07:04;;;;;;;10.23;5.57;;;;;;;;;;5076937;28;20136;-62
2024/03/14 14:09:31;;;;;;;12.50;6.65;;;;;;;;;;5090362;28;20043;-65
2024/03/14 14:11:57;;;;;;;10.45;6.05;;;;;;;;;;5091913;28;20073;-64
2024/03/14 14:14:22;;;;;;;9.75;5.57;;;;;;;;;;5093657;28;20019;-61
2024/03/14 14:16:48;;;;;;;10.60;5.45;;;;;;;;;;5109140;28;20027;-58
2024/03/14 14:19:13;;;;;;;14.55;5.70;;;;;;;;;;5112939;28;20024;-63
2024/03/14 14:21:39;;;;;;;9.15;6.00;;;;;;;;;;5116114;28;20024;-63